Terminal Aerodrome Forecast
Issued by NWS Newport/Morehead City, NC

Home | Current Version | Previous Version | Text Only | Print | Product List | Glossary Off
Versions: 1 2 3 4 5 6 7 8 9 10 11 12 13 14 15 16 17 18 19

000
FTUS42 KMHX 241628 AAA
TAFEWN
TAF AMD
KEWN 241628Z 2416/2512 05007KT P6SM SCT050 BKN100
      TEMPO 2416/2418 BKN025
     FM250200 07007KT P6SM OVC050
     FM250600 03004KT P6SM OVC010=

USA.gov is the U.S. government's official web portal to all federal, state and local government web resources and services.